Share

Alma, NE

1:20 PM CDT on April 23, 2014 (GMT -0500)
Near 14th and K (KNEFRANK2) Elev 1850 ft | 40.09 °N, 98.95 °W | Change Station
Active Advisory: Wind Advisory

Current weather conditions updated 2 seconds ago

Clear
Clear
76.6 °F
Feels Like 78 °F
N
12.3
Wind Variable Wind from WNW
Gusts 27.7 mph
Sunrise 6:47 AM
Sunset 8:24 PM
Moon Waning Crescent

Today is forecast to be Much Warmer than yesterday. Thunderstorms tonight.

Pressure 29.57 in
Visibility 10.0 miles
Clouds Clear
Heat Index 78 °F
Dew Point 54 °F
Humidity 46%
Rainfall 0.00 in
Snow Depth Not available.
UV 10 out of 16
Pollen 11.40 out of 12
Air Quality Not available.
Flu Activity Sporadic
METAR KHDE 231735Z AUTO 17025G32KT 10SM CLR 23/09 A2957 RMK AO2 LTG DSNT E T02310086

More Conditions Fewer Conditions

Pressure 29.57 in
Visibility 10.0 miles
Clouds Clear
Heat Index 78 °F
Dew Point 54 °F
Humidity 46%
Rainfall 0.00 in
Snow Depth Not available.
UV 10 out of 16
Pollen 11.40 out of 12
Air Quality Not available.
Flu Activity Sporadic
METAR KHDE 231735Z AUTO 17025G32KT 10SM CLR 23/09 A2957 RMK AO2 LTG DSNT E T02310086

More Conditions Fewer Conditions

10-Day Weather Forecast

Almanac

Astronomy

Apr. 23, 2014 Rise Set
Actual Time 6:47 AM CDT 8:24 PM CDT
Civil Twilight 6:19 AM CDT 8:53 PM CDT
Nautical Twilight 5:44 AM CDT 9:27 PM CDT
Astronomical Twilight 5:07 AM CDT 10:04 PM CDT
Moon 3:20 AM CDT 2:34 PM CDT
Length of Visible Light 14h 33m
Length of Day
13h 36m
Tomorrow will be 2m 24s longer.
Waning Crescent, 34% of the Moon is Illuminated
Today
Waning Crescent
Apr 29
New
May 6
First Quarter
May 14
Full
May 21
Last Quarter

Today's Extremes

State Highs State Lows

Community

  • Stunning Sunrise
    Stunning Sunrise
  • spring flowers
    spring flowers
  • Earth Day Spectrum Ove' Blue
    Earth Day Spectrum Ove' Blue
  • BARN B&W
    BARN B&W
  • April Sunset
    April Sunset

WunderPhotos

Upload Photos

1,704,362 photos uploaded!

WunderBlogs® & News

Nearby

Snow Depth

Station Depth Elevation
No new snow has been reported.

Coastal Water Temperatures

Place Temperature
No Stations Reporting

Earthquake Activity

City Distance Mag. Time & Date
No recent earthquake activity has been reported nearby.
Minimum magnitude displayed is 2.5.

Nearby Weather Stations

Station Location Temp. Heat Index Dew Point Humidity Wind Precip. Elev Updated Type
Near 14th and K, Franklin, NE 76.6 °F 78 °F 54 °F 46% WNW  at  12.3 mph 0.00 in / hr 1850 ft 1:20 PM CDT Rapid Fire
MesoWest PHILLIPSBURG , Phillipsburg, KS 69 °F - 47 °F 45% SSE  at  22 mph 0.00 in / hr 1985 ft 11:00 AM CDT MADIS

Show More Stations Show Fewer Stations

What do you think?

We're not finished. Please let us know what you like, what you don't like, and what you are still missing.